Terminal Aerodrome Forecast
Issued by NWS

Current Version | Previous Version | Text Only | Print | Product List | Glossary On
Versions: 1 2 3 4 5 6 7 8 9 10 11 12 13 14 15 16 17 18 19 20 21 22 23 24 25 26 27 28 29 30 31 32 33 34 35 36 37 38 39 40 41 42 43
000
FTUS45 KBOU 212341
TAFBJC
TAF
KBJC 212341Z 2200/2224 16012KT P6SM SCT050 BKN100
      TEMPO 2200/2201 VRB15G30KT -TSRA BKN060CB
     FM220100 19010KT P6SM VCSH SCT080 BKN120
     FM220400 23006KT P6SM SCT120 SCT200
     FM221400 VRB05KT P6SM SCT080 BKN120
     FM222000 15010KT P6SM VCTS SCT060CB BKN100
      TEMPO 2220/2224 VRB20G35KT -TSRA BKN060CB=

USA.gov is the U.S. government's official web portal to all federal, state and local government web resources and services.